AirNav   Phillips 66 Aviation Fuel
 
 320 users online  

KGAB Gabbs Airport
Gabbs, Nevada, USA


FAA INFORMATION EFFECTIVE 12 OCTOBER 2017

Location

FAA Identifier: GAB
Lat/Long: 38-55-26.7280N / 117-57-32.4260W
38-55.445467N / 117-57.540433W
38.9240911 / -117.9590072
(estimated)
Elevation: 4700 ft. / 1433 m (estimated)
Variation: 15E (1985)
From city: 4 miles NW of GABBS, NV
Time zone: UTC -7 (UTC -8 during Standard Time)
Zip code: 89409

Airport Operations

Airport use: Open to the public
Activation date: 09/1943
Control tower: no
ARTCC: OAKLAND CENTER
FSS: RENO FLIGHT SERVICE STATION
NOTAMs facility: RNO (NOTAM-D service available)
Attendance: UNATNDD
Wind indicator: yes
Segmented circle: yes
Beacon: ARPT BEACON OTS INDEFLY.

Airport Communications

CTAF: 122.9

Nearby radio navigation aids

VOR radial/distance  VOR name  Freq  Var
MVAr352/21.8MINA VORTAC115.1017E

Airport Services

Parking: tiedowns
Airframe service: NONE
Powerplant service: NONE
Bottled oxygen: NONE
Bulk oxygen: NONE

Runway Information

Runway 9/27

Dimensions: 5900 x 65 ft. / 1798 x 20 m
Surface: dirt, in good condition
RUNWAY 9  RUNWAY 27
Gradient: 0.9%0.9%
Traffic pattern: leftleft

Runway 16/34

Dimensions: 2800 x 65 ft. / 853 x 20 m
Surface: dirt, in good condition
RUNWAY 16  RUNWAY 34
Traffic pattern: leftleft

Airport Ownership and Management from official FAA records

Ownership: Publicly-owned
Owner: NYE COUNTY
BOX 1031
TONOPAH, NV 89049
Phone (775) 209-4174
Manager: TIM CARLO
250 N. HWY 160 #2
PAHRUMP, NV 89060
Phone (775) 751-6262
EMERGENCY CONTACT COUNTY AIRPORT OPERATIONS 775-513-3107

Airport Operational Statistics

Aircraft based on the field: 1
Single engine airplanes: 1
    
Aircraft operations: 200/year *
50% transient general aviation
50% local general aviation
* for 12-month period ending 30 June 2015

Additional Remarks

RCMD LAND RWY 09; TKOF RWY 27 WIND PMTG.
RWY 09/27 & RWY 16/34 NO LINE OF SIGHT BTN RWYS.

Instrument Procedures

There are no published instrument procedures at KGAB.

Some nearby airports with instrument procedures:

KHTH - Hawthorne Industrial Airport (39 nm SW)
KNFL - Fallon Naval Air Station (Van Voorhis Field) Airport (45 nm NW)
KFLX - Fallon Municipal Airport (50 nm NW)
KTPH - Tonopah Airport (66 nm SE)
KSPZ - Silver Springs Airport (67 nm NW)
 
Loc | Ops | Rwys | IFR | FBO | Links
Com | Nav | Svcs | Stats | Notes


 
Area around KGAB (Gabbs Airport)
 
Road maps at: MapQuest Bing Google
 
Aerial photo
WARNING: Photo may not be current or correct
Aerial photo of KGAB (Gabbs Airport)
Chris Mullins
Photo taken 29-Sep-2004

Do you have a better or more recent aerial photo of Gabbs Airport that you would like to share? If so, please send us your photo.

 
Sectional chart

 
Airport distance calculator
Flying to Gabbs Airport? Find the distance to fly.

From to KGAB

Sunrise and sunset
Times for 20-Oct-2017
 Local
(UTC-7)
 Zulu
(UTC)
Morning civil twilight06:4013:40
Sunrise07:0714:07
Sunset18:0601:06
Evening civil twilight18:3301:33

Current date and time
Zulu (UTC)  20-Oct-2017 07:12:52
Local (UTC-7)  20-Oct-2017 00:12:52
 
METAR
KHTH 
39nm SW 
200655Z AUTO 19016G25KT 160V220 10SM CLR 18/M05 A2969 RMK A01
KNFL 
45nm NW 
200656Z AUTO 25010KT 10SM CLR 16/M03 A2965 RMK AO2 SLP024 T01561033
KTMT 
48nm NE 
200655Z AUTO 24008KT 10SM CLR 08/M09 A2975 RMK AO2 T00771095
TAF
KNFL 
45nm NW 
2004/2023 22011KT 9999 FEW070 SCT150 SCT250 520209 541107 QNH2966INS TEMPO 2004/2007 23016G27KT BECMG 2005/2007 21013G24KT 9999 SCT070 BKN100 BKN150 BKN200 620609 640709 641604 520309 541206 QNH2962INS TEMPO 2007/2013 9000 -SHRA SCT050 BKN070 FM201300 28012G23KT 9999 SCT060 SCT100 BKN220 520109 541009 541909 QNH2982INS T06/2012Z T15/2022Z AMD 0435 FS30105
NOTAMs
Click for the latest NOTAMs
NOTAMs are issued by the DoD/FAA and will open in a separate window not controlled by AirNav.

 

 
 

Would you like to see your business listed on this page?

 If your business provides an interesting product or service to pilots, flight crews, aircraft, or users of the Gabbs Airport, you should consider listing it here.  To start the listing process, click on the button below
 
Add a business
 

Other Pages about Gabbs Airport

Update a link
 
Copyright © AirNav, LLC. All rights reserved. Privacy Policy  Contact